createdAt,value
2024-02-05T00:00:53.129Z,9.83
2024-02-05T00:03:20.194Z,9.81
2024-02-05T00:05:49.062Z,9.79
2024-02-05T00:08:15.829Z,9.78
2024-02-05T00:10:42.595Z,9.76
2024-02-05T00:13:11.593Z,9.74
2024-02-05T00:15:38.736Z,9.73
2024-02-05T00:18:05.582Z,9.72
2024-02-05T00:20:35.189Z,9.73
2024-02-05T00:23:01.907Z,9.73
2024-02-05T00:25:30.732Z,9.72
2024-02-05T00:27:59.669Z,9.71
2024-02-05T00:30:26.198Z,9.69
2024-02-05T00:32:55.055Z,9.68
2024-02-05T00:35:21.745Z,9.68
2024-02-05T00:37:53.556Z,9.68
2024-02-05T00:40:21.954Z,9.67
2024-02-05T00:42:48.560Z,9.64
2024-02-05T00:45:17.523Z,9.63
2024-02-05T00:47:44.282Z,9.62
2024-02-05T00:50:11.485Z,9.60
2024-02-05T00:52:55.756Z,9.60
2024-02-05T00:55:22.319Z,9.58
2024-02-05T00:57:51.274Z,9.58
2024-02-05T01:00:18.440Z,9.55
2024-02-05T01:02:45.004Z,9.54
2024-02-05T01:05:14.326Z,9.52
2024-02-05T01:07:41.213Z,9.51
2024-02-05T01:10:08.220Z,9.49
2024-02-05T01:12:34.808Z,9.47
2024-02-05T01:15:01.366Z,9.46
2024-02-05T01:17:30.393Z,9.46
2024-02-05T01:20:00.875Z,9.44
2024-02-05T01:22:29.192Z,9.45
2024-02-05T01:25:00.589Z,9.43
2024-02-05T01:27:27.117Z,9.39
2024-02-05T01:29:53.616Z,9.39
2024-02-05T01:32:20.144Z,9.39
2024-02-05T01:34:46.901Z,9.41
2024-02-05T01:37:13.796Z,9.41
2024-02-05T01:39:41.411Z,9.41
2024-02-05T01:42:08.062Z,9.40
2024-02-05T01:44:34.724Z,9.41
2024-02-05T01:47:04.408Z,9.40
2024-02-05T01:49:35.682Z,9.39
2024-02-05T01:52:05.229Z,9.36
2024-02-05T01:54:31.899Z,9.32
2024-02-05T01:57:03.251Z,9.25
2024-02-05T01:59:33.039Z,9.14
2024-02-05T02:02:00.213Z,9.10
2024-02-05T02:04:29.304Z,9.04
2024-02-05T02:07:00.718Z,9.01
2024-02-05T02:09:29.888Z,8.98
2024-02-05T02:11:58.980Z,8.95
2024-02-05T02:14:25.515Z,8.93
2024-02-05T02:16:53.380Z,8.92
2024-02-05T02:19:26.460Z,8.91
2024-02-05T02:22:06.531Z,8.90
2024-02-05T02:24:37.956Z,8.86
2024-02-05T02:27:04.740Z,8.84
2024-02-05T02:29:31.241Z,8.85
2024-02-05T02:32:08.282Z,8.87
2024-02-05T02:34:43.462Z,8.85
2024-02-05T02:37:15.984Z,8.81
2024-02-05T02:40:02.773Z,8.81
2024-02-05T02:42:29.965Z,8.82
2024-02-05T02:44:58.378Z,8.82
2024-02-05T02:51:05.222Z,8.81
2024-02-05T02:53:31.849Z,8.81
2024-02-05T02:55:58.565Z,8.80
2024-02-05T02:58:27.566Z,8.79
2024-02-05T03:00:54.414Z,8.79
2024-02-05T03:03:23.284Z,8.79
2024-02-05T03:05:49.965Z,8.80
2024-02-05T03:08:16.661Z,8.80
2024-02-05T03:10:45.682Z,8.79
2024-02-05T03:13:18.738Z,8.77
2024-02-05T03:15:46.086Z,8.74
2024-02-05T03:18:12.740Z,8.71
2024-02-05T03:20:43.042Z,8.69
2024-02-05T03:23:12.386Z,8.66
2024-02-05T03:25:40.599Z,8.63
2024-02-05T03:28:10.775Z,8.62
2024-02-05T03:30:38.460Z,8.57
2024-02-05T03:33:08.422Z,8.56
2024-02-05T03:35:35.390Z,8.58
2024-02-05T03:38:02.085Z,8.58
2024-02-05T03:40:31.213Z,8.57
2024-02-05T03:43:00.059Z,8.57
2024-02-05T03:45:26.727Z,8.58
2024-02-05T03:47:55.593Z,8.58
2024-02-05T03:50:22.247Z,8.60
2024-02-05T03:52:48.929Z,8.61
2024-02-05T03:55:16.653Z,8.61
2024-02-05T03:57:57.333Z,8.63
2024-02-05T04:00:26.295Z,8.64
2024-02-05T04:02:59.202Z,8.63
2024-02-05T04:05:33.078Z,8.63
2024-02-05T04:08:02.398Z,8.65
2024-02-05T04:10:29.148Z,8.65
2024-02-05T04:13:03.006Z,8.64
2024-02-05T04:15:29.712Z,8.66
2024-02-05T04:17:59.893Z,8.67
2024-02-05T04:20:26.683Z,8.66
2024-02-05T04:22:53.387Z,8.66
2024-02-05T04:25:20.096Z,8.67
2024-02-05T04:27:49.577Z,8.68
2024-02-05T04:30:17.609Z,8.67
2024-02-05T04:32:46.771Z,8.68
2024-02-05T04:35:13.436Z,8.68
2024-02-05T04:37:40.140Z,8.67
2024-02-05T04:40:10.469Z,8.67
2024-02-05T04:42:37.130Z,8.67
2024-02-05T04:45:06.561Z,8.66
2024-02-05T04:47:35.355Z,8.66
2024-02-05T04:50:02.503Z,8.66
2024-02-05T04:52:29.757Z,8.67
2024-02-05T04:54:56.362Z,8.66
2024-02-05T04:57:23.011Z,8.65
2024-02-05T04:59:52.308Z,8.67
2024-02-05T05:02:20.171Z,8.67
2024-02-05T05:04:46.786Z,8.66
2024-02-05T05:07:13.573Z,8.65
2024-02-05T05:09:41.086Z,8.64
2024-02-05T05:12:07.883Z,8.63
2024-02-05T05:14:36.650Z,8.64
2024-02-05T05:17:03.208Z,8.65
2024-02-05T05:19:32.427Z,8.64
2024-02-05T05:22:01.591Z,8.63
2024-02-05T05:24:28.393Z,8.61
2024-02-05T05:26:57.501Z,8.59
2024-02-05T05:29:24.024Z,8.58
2024-02-05T05:31:50.563Z,8.57
2024-02-05T05:34:21.996Z,8.55
2024-02-05T05:36:50.914Z,8.53
2024-02-05T05:39:17.662Z,8.52
2024-02-05T05:41:44.224Z,8.52
2024-02-05T05:44:10.751Z,8.51
2024-02-05T05:46:39.788Z,8.52
2024-02-05T05:49:08.973Z,8.51
2024-02-05T05:51:35.878Z,8.50
2024-02-05T05:54:02.515Z,8.50
2024-02-05T05:56:29.810Z,8.49
2024-02-05T05:58:58.624Z,8.49
2024-02-05T06:01:25.597Z,8.49
2024-02-05T06:03:52.470Z,8.47
2024-02-05T06:06:19.256Z,8.47
2024-02-05T06:08:45.861Z,8.48
2024-02-05T06:11:14.607Z,8.47
2024-02-05T06:13:45.194Z,8.48
2024-02-05T06:16:12.190Z,8.47
2024-02-05T06:18:39.202Z,8.46
2024-02-05T06:21:08.566Z,8.45
2024-02-05T06:23:35.148Z,8.43
2024-02-05T06:26:04.045Z,8.44
2024-02-05T06:28:30.788Z,8.45
2024-02-05T06:30:57.416Z,8.43
2024-02-05T06:33:24.035Z,8.43
2024-02-05T06:35:50.764Z,8.41
2024-02-05T06:38:17.306Z,8.41
2024-02-05T06:40:43.979Z,8.39
2024-02-05T06:43:13.580Z,8.40
2024-02-05T06:45:45.280Z,8.39
2024-02-05T06:48:14.306Z,8.37
2024-02-05T06:50:43.185Z,8.36
2024-02-05T06:53:09.705Z,8.36
2024-02-05T06:55:40.724Z,8.34
2024-02-05T06:58:09.543Z,8.34
2024-02-05T07:00:36.127Z,8.33
2024-02-05T07:03:02.794Z,8.32
2024-02-05T07:05:29.408Z,8.32
2024-02-05T07:07:56.075Z,8.34
2024-02-05T07:10:25.050Z,8.32
2024-02-05T07:12:55.014Z,8.32
2024-02-05T07:15:21.636Z,8.31
2024-02-05T07:17:53.472Z,8.32
2024-02-05T07:20:20.393Z,8.30
2024-02-05T07:22:49.336Z,8.28
2024-02-05T07:25:16.805Z,8.27
2024-02-05T07:27:43.453Z,8.29
2024-02-05T07:30:10.669Z,8.28
2024-02-05T07:32:42.201Z,8.27
2024-02-05T07:35:09.034Z,8.30
2024-02-05T07:37:37.491Z,8.29
2024-02-05T07:40:05.329Z,8.27
2024-02-05T07:42:32.351Z,8.27
2024-02-05T07:44:59.004Z,8.28
2024-02-05T07:47:26.140Z,8.28
2024-02-05T07:49:52.801Z,8.29
2024-02-05T07:52:19.745Z,8.29
2024-02-05T07:54:46.461Z,8.29
2024-02-05T07:57:12.998Z,8.30
2024-02-05T07:59:42.280Z,8.30
2024-02-05T08:02:09.752Z,8.30
2024-02-05T08:04:36.906Z,8.30
2024-02-05T08:07:05.975Z,8.30
2024-02-05T08:09:36.130Z,8.28
2024-02-05T08:12:05.613Z,8.29
2024-02-05T08:14:32.150Z,8.30
2024-02-05T08:16:58.727Z,8.32
2024-02-05T08:19:25.637Z,8.31
2024-02-05T08:21:52.556Z,8.32
2024-02-05T08:24:19.458Z,8.33
2024-02-05T08:26:48.464Z,8.31
2024-02-05T08:29:17.712Z,8.31
2024-02-05T08:31:44.351Z,8.30
2024-02-05T08:34:12.567Z,8.32
2024-02-05T08:36:39.874Z,8.36
2024-02-05T08:39:10.003Z,8.38
2024-02-05T08:41:39.360Z,8.39
2024-02-05T08:44:07.080Z,8.39
2024-02-05T08:46:34.234Z,8.41
2024-02-05T08:49:00.924Z,8.44
2024-02-05T08:51:31.598Z,8.44
2024-02-05T08:54:00.667Z,8.43
2024-02-05T08:56:27.302Z,8.41
2024-02-05T08:58:56.029Z,8.44
2024-02-05T09:01:25.359Z,8.43
2024-02-05T09:03:52.065Z,8.45
2024-02-05T09:06:18.946Z,8.47
2024-02-05T09:08:47.710Z,8.45
2024-02-05T09:11:15.455Z,8.47
2024-02-05T09:13:42.444Z,8.46
2024-02-05T09:16:09.126Z,8.46
2024-02-05T09:18:38.786Z,8.50
2024-02-05T09:21:07.794Z,8.47
2024-02-05T09:23:35.692Z,8.47
2024-02-05T09:26:04.480Z,8.45
2024-02-05T09:28:31.753Z,8.46
2024-02-05T09:31:06.287Z,8.46
2024-02-05T09:33:41.968Z,8.43
2024-02-05T09:36:10.306Z,8.38
2024-02-05T09:38:37.734Z,8.39
2024-02-05T09:41:10.344Z,8.39
2024-02-05T09:43:37.517Z,8.44
2024-02-05T09:46:11.752Z,8.45
2024-02-05T09:48:45.428Z,8.40
2024-02-05T09:51:16.864Z,8.43
2024-02-05T09:53:46.006Z,8.43
2024-02-05T09:56:15.182Z,8.41
2024-02-05T09:58:44.330Z,8.38
2024-02-05T10:01:14.717Z,8.41
2024-02-05T10:03:43.278Z,8.43
2024-02-05T10:06:14.097Z,8.44
2024-02-05T10:08:42.561Z,8.43
2024-02-05T10:11:14.026Z,8.46
2024-02-05T10:13:43.370Z,8.48
2024-02-05T10:16:13.813Z,8.48
2024-02-05T10:18:40.435Z,8.52
2024-02-05T10:21:07.040Z,8.50
2024-02-05T10:23:36.112Z,8.52
2024-02-05T10:26:04.587Z,8.52
2024-02-05T10:28:35.839Z,8.54
2024-02-05T10:31:12.293Z,8.55
2024-02-05T10:33:39.383Z,8.55
2024-02-05T10:36:06.326Z,8.56
2024-02-05T10:38:42.294Z,8.58
2024-02-05T10:41:12.517Z,8.61
2024-02-05T10:43:44.610Z,8.64
2024-02-05T10:46:11.391Z,8.65
2024-02-05T10:48:42.787Z,8.68
2024-02-05T10:51:12.144Z,8.70
2024-02-05T10:53:43.892Z,8.70
2024-02-05T10:56:13.066Z,8.70
2024-02-05T10:58:44.749Z,8.72
2024-02-05T11:01:16.181Z,8.76
2024-02-05T11:03:45.805Z,8.81
2024-02-05T11:06:17.354Z,8.83
2024-02-05T11:08:44.671Z,8.83
2024-02-05T11:11:13.934Z,8.84
2024-02-05T11:13:50.135Z,8.85
2024-02-05T11:16:20.409Z,8.86
2024-02-05T11:18:53.716Z,8.88
2024-02-05T11:21:26.784Z,8.92
2024-02-05T11:23:56.652Z,8.97
2024-02-05T11:26:23.627Z,8.94
2024-02-05T11:28:51.472Z,8.93
2024-02-05T11:31:28.433Z,8.96
2024-02-05T11:34:03.452Z,8.98
2024-02-05T11:36:30.753Z,8.99
2024-02-05T11:39:11.229Z,8.99
2024-02-05T11:41:37.993Z,9.02
2024-02-05T11:44:09.891Z,9.04
2024-02-05T11:46:37.012Z,9.03
2024-02-05T11:49:04.160Z,9.02
2024-02-05T11:51:33.913Z,9.04
2024-02-05T11:54:01.104Z,9.06
2024-02-05T11:56:28.042Z,9.13
2024-02-05T11:58:57.271Z,9.15
2024-02-05T12:01:24.253Z,9.17
2024-02-05T12:03:54.442Z,9.18
2024-02-05T12:06:26.441Z,9.23
2024-02-05T12:08:56.679Z,9.28
2024-02-05T12:11:23.508Z,9.34
2024-02-05T12:13:57.640Z,9.43
2024-02-05T12:16:27.149Z,9.50
2024-02-05T12:19:09.056Z,9.45
2024-02-05T12:21:42.652Z,9.43
2024-02-05T12:24:11.914Z,9.42
2024-02-05T12:26:38.514Z,9.45
2024-02-05T12:29:05.506Z,9.47
2024-02-05T12:31:32.322Z,9.51
2024-02-05T12:34:01.403Z,9.51
2024-02-05T12:36:31.367Z,9.52
2024-02-05T12:38:58.361Z,9.52
2024-02-05T12:41:25.503Z,9.51
2024-02-05T12:43:52.423Z,9.54
2024-02-05T12:46:19.496Z,9.57
2024-02-05T12:48:47.885Z,9.62
2024-02-05T12:51:14.581Z,9.66
2024-02-05T12:53:42.973Z,9.66
2024-02-05T12:56:14.598Z,9.65
2024-02-05T12:58:44.419Z,9.63
2024-02-05T13:01:11.580Z,9.64
2024-02-05T13:03:40.807Z,9.66
2024-02-05T13:06:10.025Z,9.68
2024-02-05T13:08:42.475Z,9.70
2024-02-05T13:11:11.787Z,9.71
2024-02-05T13:13:38.431Z,9.77
2024-02-05T13:16:05.941Z,9.81
2024-02-05T13:18:35.089Z,9.81
2024-02-05T13:21:04.274Z,9.83
2024-02-05T13:23:30.904Z,9.79
2024-02-05T13:25:57.797Z,9.71
2024-02-05T13:28:29.524Z,9.66
2024-02-05T13:30:56.523Z,9.61
2024-02-05T13:33:25.638Z,9.64
2024-02-05T13:35:52.213Z,9.72
2024-02-05T13:38:21.867Z,9.75
2024-02-05T13:40:48.568Z,9.77
2024-02-05T13:43:15.214Z,9.77
2024-02-05T13:45:43.643Z,9.77
2024-02-05T13:48:15.119Z,9.77
2024-02-05T13:50:42.085Z,9.77
2024-02-05T13:53:09.034Z,9.74
2024-02-05T13:55:35.612Z,9.76
2024-02-05T13:58:02.208Z,9.81
2024-02-05T14:00:29.197Z,9.85
2024-02-05T14:02:57.992Z,9.81
2024-02-05T14:05:24.719Z,9.81
2024-02-05T14:07:51.675Z,9.80
2024-02-05T14:10:18.701Z,9.80
2024-02-05T14:12:47.851Z,9.81
2024-02-05T14:15:15.786Z,9.83
2024-02-05T14:17:42.378Z,9.83
2024-02-05T14:20:09.463Z,9.85
2024-02-05T14:22:38.682Z,9.82
2024-02-05T14:25:05.931Z,9.82
2024-02-05T14:27:35.160Z,9.81
2024-02-05T14:30:01.883Z,9.81
2024-02-05T14:32:28.611Z,9.79
2024-02-05T14:34:55.398Z,9.81
2024-02-05T14:37:22.095Z,9.77
2024-02-05T14:39:49.027Z,9.79
2024-02-05T14:42:15.604Z,9.80
2024-02-05T14:44:42.692Z,9.77
2024-02-05T14:47:09.339Z,9.69
2024-02-05T14:49:38.572Z,9.62
2024-02-05T14:52:05.629Z,9.59
2024-02-05T14:54:34.481Z,9.56
2024-02-05T14:57:05.985Z,9.56
2024-02-05T14:59:32.542Z,9.56
2024-02-05T15:01:59.487Z,9.57
2024-02-05T15:04:29.291Z,9.56
2024-02-05T15:06:56.244Z,9.56
2024-02-05T15:09:25.513Z,9.54
2024-02-05T15:11:52.458Z,9.53
2024-02-05T15:14:21.604Z,9.52
2024-02-05T15:16:51.763Z,9.51
2024-02-05T15:19:18.607Z,9.50
2024-02-05T15:21:47.879Z,9.48
2024-02-05T15:24:15.329Z,9.45
2024-02-05T15:26:47.750Z,9.43
2024-02-05T15:29:17.906Z,9.43
2024-02-05T15:31:44.805Z,9.40
2024-02-05T15:34:15.650Z,9.39
2024-02-05T15:36:42.544Z,9.37
2024-02-05T15:39:12.612Z,9.37
2024-02-05T15:41:39.587Z,9.37
2024-02-05T15:44:11.107Z,9.35
2024-02-05T15:46:38.477Z,9.33
2024-02-05T15:49:10.408Z,9.32
2024-02-05T15:51:39.632Z,9.31
2024-02-05T15:54:06.516Z,9.31
2024-02-05T15:56:42.259Z,9.30
2024-02-05T15:59:10.266Z,9.29
2024-02-05T16:01:40.643Z,9.27
2024-02-05T16:04:11.048Z,9.24
2024-02-05T16:06:38.050Z,9.22
2024-02-05T16:09:07.515Z,9.22
2024-02-05T16:11:35.028Z,9.19
2024-02-05T16:14:01.620Z,9.19
2024-02-05T16:16:28.426Z,9.18
2024-02-05T16:19:00.359Z,9.17
2024-02-05T16:21:32.567Z,9.15
2024-02-05T16:24:02.324Z,9.13
2024-02-05T16:26:29.201Z,9.13
2024-02-05T16:28:55.879Z,9.12
2024-02-05T16:31:24.750Z,9.09
2024-02-05T16:33:52.218Z,9.07
2024-02-05T16:36:21.700Z,9.05
2024-02-05T16:38:48.604Z,9.03
2024-02-05T16:41:20.092Z,9.01
2024-02-05T16:43:47.004Z,9.01
2024-02-05T16:46:13.867Z,9.00
2024-02-05T16:48:41.159Z,8.98
2024-02-05T16:51:08.259Z,8.96
2024-02-05T16:53:37.953Z,8.92
2024-02-05T16:56:05.130Z,8.87
2024-02-05T16:58:31.889Z,8.82
2024-02-05T17:01:01.517Z,8.78
2024-02-05T17:03:28.880Z,8.73
2024-02-05T17:05:55.891Z,8.70
2024-02-05T17:08:22.521Z,8.67
2024-02-05T17:10:49.207Z,8.64
2024-02-05T17:13:18.683Z,8.59
2024-02-05T17:15:50.534Z,8.56
2024-02-05T17:18:17.431Z,8.54
2024-02-05T17:20:46.532Z,8.52
2024-02-05T17:23:13.188Z,8.50
2024-02-05T17:25:39.903Z,8.48
2024-02-05T17:28:06.691Z,8.46
2024-02-05T17:30:35.486Z,8.43
2024-02-05T17:33:02.242Z,8.33
2024-02-05T17:35:31.490Z,8.27
2024-02-05T17:37:58.052Z,8.21
2024-02-05T17:40:24.733Z,8.17
2024-02-05T17:42:54.267Z,8.11
2024-02-05T17:45:23.165Z,8.05
2024-02-05T17:47:52.003Z,8.02
2024-02-05T17:50:18.706Z,8.00
2024-02-05T17:52:47.360Z,7.97
2024-02-05T17:55:21.025Z,7.95
2024-02-05T17:57:50.465Z,7.93
2024-02-05T18:00:17.254Z,7.89
2024-02-05T18:02:44.300Z,7.85
2024-02-05T18:05:11.642Z,7.82
2024-02-05T18:07:40.967Z,7.80
2024-02-05T18:10:08.503Z,7.79
2024-02-05T18:12:35.113Z,7.79
2024-02-05T18:15:01.663Z,7.80
2024-02-05T18:17:30.732Z,7.79
2024-02-05T18:19:57.396Z,7.78
2024-02-05T18:22:26.681Z,7.78
2024-02-05T18:24:55.703Z,7.76
2024-02-05T18:27:27.635Z,7.75
2024-02-05T18:29:54.179Z,7.74
2024-02-05T18:32:20.810Z,7.73
2024-02-05T18:34:47.812Z,7.73
2024-02-05T18:37:16.247Z,7.72
2024-02-05T18:39:43.294Z,7.73
2024-02-05T18:42:10.015Z,7.72
2024-02-05T18:44:36.743Z,7.71
2024-02-05T18:47:08.649Z,7.70
2024-02-05T18:49:40.011Z,7.71
2024-02-05T18:52:10.742Z,7.71
2024-02-05T18:54:37.596Z,7.72
2024-02-05T18:57:04.286Z,7.73
2024-02-05T18:59:33.645Z,7.74
2024-02-05T19:02:05.572Z,7.75
2024-02-05T19:04:32.810Z,7.77
2024-02-05T19:06:59.823Z,7.77
2024-02-05T19:09:29.113Z,7.76
2024-02-05T19:12:01.031Z,7.77
2024-02-05T19:14:30.331Z,7.78
2024-02-05T19:16:59.151Z,7.79
2024-02-05T19:19:26.146Z,7.79
2024-02-05T19:21:52.905Z,7.81
2024-02-05T19:24:19.834Z,7.81
2024-02-05T19:26:50.392Z,7.82
2024-02-05T19:29:20.614Z,7.82
2024-02-05T19:31:47.760Z,7.81
2024-02-05T19:34:16.910Z,7.82
2024-02-05T19:36:46.278Z,7.81
2024-02-05T19:39:12.867Z,7.82
2024-02-05T19:41:41.772Z,7.82
2024-02-05T19:44:10.874Z,7.83
2024-02-05T19:46:39.851Z,7.83
2024-02-05T19:49:11.199Z,7.84
2024-02-05T19:51:40.473Z,7.86
2024-02-05T19:54:07.120Z,7.87
2024-02-05T19:56:33.670Z,7.88
2024-02-05T19:59:02.366Z,7.87
2024-02-05T20:01:31.680Z,7.89
2024-02-05T20:04:01.071Z,7.89
2024-02-05T20:06:30.734Z,7.92
2024-02-05T20:08:57.535Z,7.92
2024-02-05T20:11:26.535Z,7.93
2024-02-05T20:13:53.190Z,7.93
2024-02-05T20:16:32.707Z,7.93
2024-02-05T20:18:59.839Z,7.93
2024-02-05T20:21:29.846Z,7.94
2024-02-05T20:24:02.876Z,7.96
2024-02-05T20:26:35.252Z,7.96
2024-02-05T20:29:04.159Z,7.98
2024-02-05T20:31:34.683Z,7.98
2024-02-05T20:34:01.693Z,8.02
2024-02-05T20:36:28.665Z,8.02
2024-02-05T20:38:57.789Z,8.05
2024-02-05T20:41:26.801Z,8.06
2024-02-05T20:43:54.109Z,8.08
2024-02-05T20:46:20.793Z,8.11
2024-02-05T20:48:49.944Z,8.15
2024-02-05T20:51:21.420Z,8.15
2024-02-05T20:53:50.641Z,8.17
2024-02-05T20:56:21.013Z,8.17
2024-02-05T20:58:49.849Z,8.19
2024-02-05T21:01:16.680Z,8.21
2024-02-05T21:03:45.950Z,8.21
2024-02-05T21:06:12.550Z,8.22
2024-02-05T21:08:43.922Z,8.25
2024-02-05T21:11:12.995Z,8.26
2024-02-05T21:13:42.169Z,8.29
2024-02-05T21:16:16.094Z,8.30
2024-02-05T21:18:43.255Z,8.30
2024-02-05T21:21:10.040Z,8.31
2024-02-05T21:23:37.012Z,8.36
2024-02-05T21:26:03.798Z,8.36
2024-02-05T21:28:33.091Z,8.37
2024-02-05T21:31:04.976Z,8.37
2024-02-05T21:33:31.962Z,8.38
2024-02-05T21:36:00.864Z,8.39
2024-02-05T21:38:27.406Z,8.41
2024-02-05T21:40:56.306Z,8.43
2024-02-05T21:43:22.972Z,8.43
2024-02-05T21:45:54.373Z,8.42
2024-02-05T21:48:23.295Z,8.43
2024-02-05T21:50:49.991Z,8.44
2024-02-05T21:53:19.844Z,8.44
2024-02-05T21:55:46.506Z,8.42
2024-02-05T21:58:17.664Z,8.39
2024-02-05T22:00:47.249Z,8.40
2024-02-05T22:03:13.843Z,8.42
2024-02-05T22:05:40.614Z,8.41
2024-02-05T22:08:09.670Z,8.41
2024-02-05T22:10:38.875Z,8.40
2024-02-05T22:13:09.154Z,8.38
2024-02-05T22:15:38.765Z,8.38
2024-02-05T22:18:05.896Z,8.36
2024-02-05T22:20:34.733Z,8.36
2024-02-05T22:23:03.643Z,8.36
2024-02-05T22:25:30.403Z,8.34
2024-02-05T22:27:57.940Z,8.34
2024-02-05T22:30:26.201Z,8.33
2024-02-05T22:32:53.802Z,8.35
2024-02-05T22:35:20.593Z,8.37
2024-02-05T22:37:49.541Z,8.38
2024-02-05T22:40:16.195Z,8.38
2024-02-05T22:42:47.629Z,8.39
2024-02-05T22:45:17.192Z,8.39
2024-02-05T22:47:43.869Z,8.40
2024-02-05T22:50:11.218Z,8.40
2024-02-05T22:52:38.546Z,8.41
2024-02-05T22:55:06.151Z,8.45
2024-02-05T22:57:35.705Z,8.46
2024-02-05T23:00:02.996Z,8.44
2024-02-05T23:02:30.364Z,8.44
2024-02-05T23:04:59.441Z,8.44
2024-02-05T23:07:30.942Z,8.47
2024-02-05T23:09:57.825Z,8.47
2024-02-05T23:12:26.830Z,8.46
2024-02-05T23:14:53.389Z,8.45
2024-02-05T23:17:22.337Z,8.44
2024-02-05T23:19:49.054Z,8.41
2024-02-05T23:22:18.355Z,8.39
2024-02-05T23:24:45.128Z,8.38
2024-02-05T23:27:12.601Z,8.38
2024-02-05T23:29:44.083Z,8.37
2024-02-05T23:32:11.010Z,8.36
2024-02-05T23:34:40.082Z,8.35
2024-02-05T23:37:06.973Z,8.34
2024-02-05T23:39:33.665Z,8.34
2024-02-05T23:42:00.611Z,8.34
2024-02-05T23:44:29.529Z,8.34
2024-02-05T23:46:58.439Z,8.35
2024-02-05T23:49:27.361Z,8.34
2024-02-05T23:51:56.861Z,8.34
2024-02-05T23:54:26.126Z,8.36
2024-02-05T23:56:54.759Z,8.36
2024-02-05T23:59:22.532Z,8.37
